sensor_id;sensor_type;location;lat;lon;timestamp;pressure;altitude;pressure_sealevel;temperature;humidity
11053;BME280;55230;42.602;23.470;2022-10-18T00:01:01;94950.44;;;6.75;86.48
11053;BME280;55230;42.602;23.470;2022-10-18T00:03:28;95011.28;;;7.10;87.35
11053;BME280;55230;42.602;23.470;2022-10-18T00:05:56;94957.78;;;6.53;87.39
11053;BME280;55230;42.602;23.470;2022-10-18T00:08:23;94882.78;;;6.29;87.84
11053;BME280;55230;42.602;23.470;2022-10-18T00:10:50;94999.81;;;7.06;87.84
11053;BME280;55230;42.602;23.470;2022-10-18T00:13:17;94900.34;;;6.40;88.15
11053;BME280;55230;42.602;23.470;2022-10-18T00:15:48;94991.78;;;6.98;88.94
11053;BME280;55230;42.602;23.470;2022-10-18T00:18:15;94994.47;;;6.88;89.25
11053;BME280;55230;42.602;23.470;2022-10-18T00:20:42;94980.69;;;6.89;89.67
11053;BME280;55230;42.602;23.470;2022-10-18T00:23:10;94976.84;;;6.90;89.62
11053;BME280;55230;42.602;23.470;2022-10-18T00:25:37;94783.94;;;4.41;90.08
11053;BME280;55230;42.602;23.470;2022-10-18T00:28:03;94973.81;;;6.78;90.79
11053;BME280;55230;42.602;23.470;2022-10-18T00:30:30;94971.53;;;6.66;92.16
11053;BME280;55230;42.602;23.470;2022-10-18T00:32:57;94831.59;;;5.84;91.36
11053;BME280;55230;42.602;23.470;2022-10-18T00:35:24;94893.88;;;6.20;92.14
11053;BME280;55230;42.602;23.470;2022-10-18T00:37:51;94965.41;;;6.69;91.23
11053;BME280;55230;42.602;23.470;2022-10-18T00:40:20;94894.28;;;6.19;91.17
11053;BME280;55230;42.602;23.470;2022-10-18T00:42:46;94979.97;;;6.61;91.35
11053;BME280;55230;42.602;23.470;2022-10-18T00:45:17;94970.78;;;6.58;92.38
11053;BME280;55230;42.602;23.470;2022-10-18T00:47:49;94965.41;;;6.58;91.57
11053;BME280;55230;42.602;23.470;2022-10-18T00:50:19;94887.78;;;6.06;91.93
11053;BME280;55230;42.602;23.470;2022-10-18T00:52:50;94959.28;;;6.51;92.95
11053;BME280;55230;42.602;23.470;2022-10-18T00:55:19;94957.78;;;6.46;93.20
11053;BME280;55230;42.602;23.470;2022-10-18T00:57:47;94954.72;;;6.41;94.16
11053;BME280;55230;42.602;23.470;2022-10-18T01:00:14;94718.38;;;4.68;94.43
11053;BME280;55230;42.602;23.470;2022-10-18T01:02:43;94946.31;;;6.21;96.02
11053;BME280;55230;42.602;23.470;2022-10-18T01:05:11;94881.25;;;5.75;97.14
11053;BME280;55230;42.602;23.470;2022-10-18T01:07:54;94781.06;;;5.20;96.75
11053;BME280;55230;42.602;23.470;2022-10-18T01:10:32;94937.13;;;6.26;95.93
11053;BME280;55230;42.602;23.470;2022-10-18T01:13:09;94839.94;;;5.37;96.69
11053;BME280;55230;42.602;23.470;2022-10-18T01:15:45;94935.22;;;6.02;97.53
11053;BME280;55230;42.602;23.470;2022-10-18T01:18:23;94658.72;;;4.08;98.63
11053;BME280;55230;42.602;23.470;2022-10-18T01:21:13;94877.81;;;5.67;98.37
11053;BME280;55230;42.602;23.470;2022-10-18T01:30:16;94737.41;;;4.49;99.23
11053;BME280;55230;42.602;23.470;2022-10-18T01:32:47;94927.94;;;5.92;99.66
11053;BME280;55230;42.602;23.470;2022-10-18T01:35:19;94925.59;;;5.72;100.00
11053;BME280;55230;42.602;23.470;2022-10-18T01:37:48;94925.59;;;5.76;100.00
11053;BME280;55230;42.602;23.470;2022-10-18T01:40:18;94929.41;;;5.75;100.00
11053;BME280;55230;42.602;23.470;2022-10-18T01:42:47;94917.97;;;5.74;99.88
11053;BME280;55230;42.602;23.470;2022-10-18T01:45:17;94824.94;;;4.87;99.95
11053;BME280;55230;42.602;23.470;2022-10-18T01:47:45;94923.31;;;5.67;100.00
11053;BME280;55230;42.602;23.470;2022-10-18T01:50:13;94924.81;;;5.61;99.75
11053;BME280;55230;42.602;23.470;2022-10-18T01:52:46;94924.41;;;5.56;99.46
11053;BME280;55230;42.602;23.470;2022-10-18T01:55:13;94540.97;;;3.02;98.97
11053;BME280;55230;42.602;23.470;2022-10-18T01:57:43;94873.53;;;5.14;97.66
11053;BME280;55230;42.602;23.470;2022-10-18T02:00:14;94917.91;;;5.46;97.46
11053;BME280;55230;42.602;23.470;2022-10-18T02:02:45;94924.38;;;5.45;96.48
11053;BME280;55230;42.602;23.470;2022-10-18T02:05:21;94920.19;;;5.44;94.96
11053;BME280;55230;42.602;23.470;2022-10-18T02:07:53;94917.13;;;5.35;95.74
11053;BME280;55230;42.602;23.470;2022-10-18T02:10:28;94916.69;;;5.12;99.51
11053;BME280;55230;42.602;23.470;2022-10-18T02:12:58;94908.69;;;5.19;99.21
11053;BME280;55230;42.602;23.470;2022-10-18T02:15:29;94906.00;;;5.19;99.21
11053;BME280;55230;42.602;23.470;2022-10-18T02:17:57;94909.41;;;5.16;100.00
11053;BME280;55230;42.602;23.470;2022-10-18T02:20:25;94901.38;;;5.13;100.00
11053;BME280;55230;42.602;23.470;2022-10-18T02:22:54;94898.72;;;5.16;100.00
11053;BME280;55230;42.602;23.470;2022-10-18T02:25:23;94519.50;;;2.71;100.00
11053;BME280;55230;42.602;23.470;2022-10-18T02:27:51;94901.78;;;5.15;100.00
11053;BME280;55230;42.602;23.470;2022-10-18T02:30:19;94831.75;;;4.70;100.00
11053;BME280;55230;42.602;23.470;2022-10-18T02:32:53;94895.66;;;5.11;100.00
11053;BME280;55230;42.602;23.470;2022-10-18T02:35:26;94895.28;;;5.12;100.00
11053;BME280;55230;42.602;23.470;2022-10-18T02:37:56;94898.69;;;5.09;100.00
11053;BME280;55230;42.602;23.470;2022-10-18T02:40:24;94904.06;;;5.13;100.00
11053;BME280;55230;42.602;23.470;2022-10-18T02:42:54;94905.59;;;5.10;100.00
11053;BME280;55230;42.602;23.470;2022-10-18T02:45:21;94729.22;;;3.93;100.00
11053;BME280;55230;42.602;23.470;2022-10-18T02:47:49;94902.81;;;4.82;100.00
11053;BME280;55230;42.602;23.470;2022-10-18T02:50:16;94843.88;;;4.54;100.00
11053;BME280;55230;42.602;23.470;2022-10-18T02:52:45;94912.03;;;4.95;100.00
11053;BME280;55230;42.602;23.470;2022-10-18T02:55:11;94908.16;;;4.86;100.00
11053;BME280;55230;42.602;23.470;2022-10-18T02:57:38;94912.72;;;4.82;100.00
11053;BME280;55230;42.602;23.470;2022-10-18T03:00:06;94916.16;;;4.82;100.00
11053;BME280;55230;42.602;23.470;2022-10-18T03:02:33;94900.88;;;4.79;100.00
11053;BME280;55230;42.602;23.470;2022-10-18T03:04:59;94912.31;;;4.72;100.00
11053;BME280;55230;42.602;23.470;2022-10-18T03:07:26;94287.53;;;0.48;100.00
11053;BME280;55230;42.602;23.470;2022-10-18T03:09:54;94636.28;;;2.72;100.00
11053;BME280;55230;42.602;23.470;2022-10-18T03:12:21;94804.13;;;3.67;100.00
11053;BME280;55230;42.602;23.470;2022-10-18T03:14:48;94893.88;;;4.50;100.00
11053;BME280;55230;42.602;23.470;2022-10-18T03:17:15;94904.19;;;4.51;100.00
11053;BME280;55230;42.602;23.470;2022-10-18T03:19:42;94907.59;;;4.45;100.00
11053;BME280;55230;42.602;23.470;2022-10-18T03:22:08;94899.56;;;4.45;100.00
11053;BME280;55230;42.602;23.470;2022-10-18T03:24:35;94388.16;;;1.00;100.00
11053;BME280;55230;42.602;23.470;2022-10-18T03:27:03;94894.91;;;4.35;100.00
11053;BME280;55230;42.602;23.470;2022-10-18T03:29:30;94896.03;;;4.27;100.00
11053;BME280;55230;42.602;23.470;2022-10-18T03:31:57;94899.09;;;4.29;100.00
11053;BME280;55230;42.602;23.470;2022-10-18T03:34:23;94902.19;;;4.34;100.00
11053;BME280;55230;42.602;23.470;2022-10-18T03:36:50;94896.78;;;4.27;100.00
11053;BME280;55230;42.602;23.470;2022-10-18T03:39:17;94893.34;;;4.27;100.00
11053;BME280;55230;42.602;23.470;2022-10-18T03:41:44;94895.25;;;4.26;100.00
11053;BME280;55230;42.602;23.470;2022-10-18T03:44:12;94904.44;;;4.29;100.00
11053;BME280;55230;42.602;23.470;2022-10-18T03:46:38;94907.09;;;4.29;100.00
11053;BME280;55230;42.602;23.470;2022-10-18T03:49:05;94791.81;;;3.48;100.00
11053;BME280;55230;42.602;23.470;2022-10-18T03:51:32;94911.22;;;4.16;100.00
11053;BME280;55230;42.602;23.470;2022-10-18T03:53:59;94909.63;;;4.08;100.00
11053;BME280;55230;42.602;23.470;2022-10-18T03:56:25;94914.97;;;4.08;100.00
11053;BME280;55230;42.602;23.470;2022-10-18T03:58:52;94921.34;;;3.96;100.00
11053;BME280;55230;42.602;23.470;2022-10-18T04:01:20;94922.50;;;3.99;100.00
11053;BME280;55230;42.602;23.470;2022-10-18T04:03:47;94904.56;;;3.52;100.00
11053;BME280;55230;42.602;23.470;2022-10-18T04:06:14;94920.06;;;3.80;100.00
11053;BME280;55230;42.602;23.470;2022-10-18T04:08:41;94673.41;;;2.18;100.00
11053;BME280;55230;42.602;23.470;2022-10-18T04:11:07;94920.69;;;3.63;100.00
11053;BME280;55230;42.602;23.470;2022-10-18T04:13:35;94916.16;;;3.67;100.00
11053;BME280;55230;42.602;23.470;2022-10-18T04:16:02;94912.41;;;3.75;100.00
11053;BME280;55230;42.602;23.470;2022-10-18T04:18:30;94910.88;;;3.74;100.00
11053;BME280;55230;42.602;23.470;2022-10-18T04:20:57;94913.94;;;3.76;100.00
11053;BME280;55230;42.602;23.470;2022-10-18T04:23:23;94910.13;;;3.77;100.00
11053;BME280;55230;42.602;23.470;2022-10-18T04:25:50;94910.88;;;3.74;100.00
11053;BME280;55230;42.602;23.470;2022-10-18T04:28:17;94915.41;;;3.70;100.00
11053;BME280;55230;42.602;23.470;2022-10-18T04:30:48;94839.44;;;3.09;100.00
11053;BME280;55230;42.602;23.470;2022-10-18T04:33:15;94903.28;;;3.76;100.00
11053;BME280;55230;42.602;23.470;2022-10-18T04:35:44;94909.28;;;3.66;100.00
11053;BME280;55230;42.602;23.470;2022-10-18T04:38:11;94861.81;;;3.38;100.00
11053;BME280;55230;42.602;23.470;2022-10-18T04:40:38;94907.06;;;3.75;100.00
11053;BME280;55230;42.602;23.470;2022-10-18T04:43:05;94868.00;;;3.52;100.00
11053;BME280;55230;42.602;23.470;2022-10-18T04:45:32;94817.38;;;3.09;100.00
11053;BME280;55230;42.602;23.470;2022-10-18T04:47:59;94865.13;;;3.72;100.00
11053;BME280;55230;42.602;23.470;2022-10-18T04:50:25;94898.13;;;3.97;100.00
11053;BME280;55230;42.602;23.470;2022-10-18T04:52:54;94895.78;;;3.92;100.00
11053;BME280;55230;42.602;23.470;2022-10-18T04:55:20;94869.78;;;3.82;100.00
11053;BME280;55230;42.602;23.470;2022-10-18T04:57:47;94258.75;;;-0.16;100.00
11053;BME280;55230;42.602;23.470;2022-10-18T05:00:14;94896.28;;;4.11;100.00
11053;BME280;55230;42.602;23.470;2022-10-18T05:02:41;94897.88;;;4.16;100.00
11053;BME280;55230;42.602;23.470;2022-10-18T05:05:08;94896.00;;;4.23;100.00
11053;BME280;55230;42.602;23.470;2022-10-18T05:07:35;94886.91;;;4.31;100.00
11053;BME280;55230;42.602;23.470;2022-10-18T05:10:04;94890.00;;;4.44;100.00
11053;BME280;55230;42.602;23.470;2022-10-18T05:12:30;94849.31;;;3.96;100.00
11053;BME280;55230;42.602;23.470;2022-10-18T05:14:57;94749.25;;;3.62;100.00
11053;BME280;55230;42.602;23.470;2022-10-18T05:17:24;94881.38;;;4.75;100.00
11053;BME280;55230;42.602;23.470;2022-10-18T05:19:51;94882.25;;;4.93;100.00
11053;BME280;55230;42.602;23.470;2022-10-18T05:22:18;94904.84;;;5.17;100.00
11053;BME280;55230;42.602;23.470;2022-10-18T05:24:44;94886.19;;;5.41;100.00
11053;BME280;55230;42.602;23.470;2022-10-18T05:27:12;94835.34;;;5.34;100.00
11053;BME280;55230;42.602;23.470;2022-10-18T05:29:39;94887.78;;;5.92;100.00
11053;BME280;55230;42.602;23.470;2022-10-18T05:32:06;94893.50;;;6.15;100.00
11053;BME280;55230;42.602;23.470;2022-10-18T05:34:33;94882.78;;;6.29;100.00
11053;BME280;55230;42.602;23.470;2022-10-18T05:37:00;94634.06;;;4.60;100.00
11053;BME280;55230;42.602;23.470;2022-10-18T05:39:26;94891.19;;;6.31;100.00
11053;BME280;55230;42.602;23.470;2022-10-18T05:41:53;94904.59;;;6.17;99.77
11053;BME280;55230;42.602;23.470;2022-10-18T05:44:21;94907.66;;;6.26;98.04
11053;BME280;55230;42.602;23.470;2022-10-18T05:46:48;94902.66;;;6.49;97.38
11053;BME280;55230;42.602;23.470;2022-10-18T05:49:15;94906.47;;;6.55;95.20
11053;BME280;55230;42.602;23.470;2022-10-18T05:51:42;94911.38;;;6.84;94.74
11053;BME280;55230;42.602;23.470;2022-10-18T05:54:10;94904.09;;;6.85;94.12
11053;BME280;55230;42.602;23.470;2022-10-18T05:56:37;94910.19;;;6.89;93.77
11053;BME280;55230;42.602;23.470;2022-10-18T05:59:03;94921.22;;;7.16;93.15
11053;BME280;55230;42.602;23.470;2022-10-18T06:01:36;94703.84;;;5.88;92.42
11053;BME280;55230;42.602;23.470;2022-10-18T06:04:03;94828.59;;;6.97;91.90
11053;BME280;55230;42.602;23.470;2022-10-18T06:06:30;94909.22;;;7.38;91.28
11053;BME280;55230;42.602;23.470;2022-10-18T06:08:57;94917.66;;;7.36;88.52
11053;BME280;55230;42.602;23.470;2022-10-18T06:11:24;94805.00;;;6.64;88.01
11053;BME280;55230;42.602;23.470;2022-10-18T06:13:51;94926.13;;;7.31;87.86
11053;BME280;55230;42.602;23.470;2022-10-18T06:16:19;94887.53;;;7.04;86.44
11053;BME280;55230;42.602;23.470;2022-10-18T06:18:52;94919.19;;;7.37;87.61
11053;BME280;55230;42.602;23.470;2022-10-18T06:21:21;94926.81;;;7.42;86.75
11053;BME280;55230;42.602;23.470;2022-10-18T06:23:48;94926.09;;;7.42;87.61
11053;BME280;55230;42.602;23.470;2022-10-18T06:26:15;94929.00;;;7.65;86.55
11053;BME280;55230;42.602;23.470;2022-10-18T06:28:42;94888.25;;;7.80;84.79
11053;BME280;55230;42.602;23.470;2022-10-18T06:31:09;94954.84;;;8.03;84.00
11053;BME280;55230;42.602;23.470;2022-10-18T06:33:36;94922.53;;;8.13;84.12
11053;BME280;55230;42.602;23.470;2022-10-18T06:36:06;94920.16;;;8.23;83.75
11053;BME280;55230;42.602;23.470;2022-10-18T06:38:33;94918.84;;;8.45;83.17
11053;BME280;55230;42.602;23.470;2022-10-18T06:41:01;94921.25;;;8.76;81.66
11053;BME280;55230;42.602;23.470;2022-10-18T06:43:28;94780.72;;;7.94;81.36
11053;BME280;55230;42.602;23.470;2022-10-18T06:45:55;94882.63;;;8.93;79.38
11053;BME280;55230;42.602;23.470;2022-10-18T06:48:23;94914.25;;;9.16;80.74
11053;BME280;55230;42.602;23.470;2022-10-18T06:50:51;94916.28;;;9.39;78.16
11053;BME280;55230;42.602;23.470;2022-10-18T06:53:19;94827.06;;;9.10;77.60
11053;BME280;55230;42.602;23.470;2022-10-18T06:55:46;94908.97;;;9.92;75.81
11053;BME280;55230;42.602;23.470;2022-10-18T06:58:12;94909.66;;;9.73;77.30
11053;BME280;55230;42.602;23.470;2022-10-18T07:00:39;94904.34;;;9.70;78.12
11053;BME280;55230;42.602;23.470;2022-10-18T07:03:06;94912.41;;;9.70;79.47
11053;BME280;55230;42.602;23.470;2022-10-18T07:05:33;94906.91;;;9.77;79.10
11053;BME280;55230;42.602;23.470;2022-10-18T07:08:00;94716.44;;;8.48;78.85
11053;BME280;55230;42.602;23.470;2022-10-18T07:10:28;94909.22;;;9.78;78.70
11053;BME280;55230;42.602;23.470;2022-10-18T07:12:55;94910.72;;;9.79;79.12
11053;BME280;55230;42.602;23.470;2022-10-18T07:15:21;94900.56;;;9.90;78.32
11053;BME280;55230;42.602;23.470;2022-10-18T07:17:48;94857.97;;;9.55;78.89
11053;BME280;55230;42.602;23.470;2022-10-18T07:20:15;94903.00;;;9.81;78.05
11053;BME280;55230;42.602;23.470;2022-10-18T07:22:42;94540.25;;;7.56;78.16
11053;BME280;55230;42.602;23.470;2022-10-18T07:25:09;94907.81;;;10.20;77.16
11053;BME280;55230;42.602;23.470;2022-10-18T07:27:37;94349.69;;;5.99;77.96
11053;BME280;55230;42.602;23.470;2022-10-18T07:30:05;94908.47;;;10.27;75.71
11053;BME280;55230;42.602;23.470;2022-10-18T07:32:33;94899.78;;;10.39;74.87
11053;BME280;55230;42.602;23.470;2022-10-18T07:34:59;94904.78;;;10.41;74.83
11053;BME280;55230;42.602;23.470;2022-10-18T07:37:27;94848.06;;;9.98;74.42
11053;BME280;55230;42.602;23.470;2022-10-18T07:39:54;94909.00;;;10.42;74.45
11053;BME280;55230;42.602;23.470;2022-10-18T07:42:20;94253.06;;;6.20;73.56
11053;BME280;55230;42.602;23.470;2022-10-18T07:44:49;94897.59;;;10.77;72.12
11053;BME280;55230;42.602;23.470;2022-10-18T07:47:16;94897.38;;;10.88;71.36
11053;BME280;55230;42.602;23.470;2022-10-18T07:49:42;94893.41;;;10.96;71.34
11053;BME280;55230;42.602;23.470;2022-10-18T07:52:09;94891.16;;;10.91;71.08
11053;BME280;55230;42.602;23.470;2022-10-18T07:54:36;94810.50;;;10.57;70.87
11053;BME280;55230;42.602;23.470;2022-10-18T07:57:03;94882.38;;;11.26;70.21
11053;BME280;55230;42.602;23.470;2022-10-18T07:59:30;94884.78;;;11.40;69.28
11053;BME280;55230;42.602;23.470;2022-10-18T08:01:58;94876.59;;;11.63;67.50
11053;BME280;55230;42.602;23.470;2022-10-18T08:04:25;94918.91;;;11.50;67.98
11053;BME280;55230;42.602;23.470;2022-10-18T08:06:52;94870.78;;;11.81;66.11
11053;BME280;55230;42.602;23.470;2022-10-18T08:09:18;94708.63;;;10.81;65.99
11053;BME280;55230;42.602;23.470;2022-10-18T08:11:45;94876.72;;;12.24;64.45
11053;BME280;55230;42.602;23.470;2022-10-18T08:14:12;94877.75;;;12.30;64.49
11053;BME280;55230;42.602;23.470;2022-10-18T08:16:39;94888.22;;;12.28;64.76
11053;BME280;55230;42.602;23.470;2022-10-18T08:19:07;94864.44;;;12.51;62.84
11053;BME280;55230;42.602;23.470;2022-10-18T08:21:34;94856.19;;;12.71;61.15
11053;BME280;55230;42.602;23.470;2022-10-18T08:24:01;94858.28;;;12.79;60.56
11053;BME280;55230;42.602;23.470;2022-10-18T08:26:28;94857.41;;;12.70;61.37
11053;BME280;55230;42.602;23.470;2022-10-18T08:28:54;94862.69;;;12.73;60.55
11053;BME280;55230;42.602;23.470;2022-10-18T08:31:21;94851.28;;;12.82;59.50
11053;BME280;55230;42.602;23.470;2022-10-18T08:33:48;94845.09;;;12.82;60.21
11053;BME280;55230;42.602;23.470;2022-10-18T08:36:16;94857.25;;;13.18;58.15
11053;BME280;55230;42.602;23.470;2022-10-18T08:38:43;94847.56;;;13.05;57.87
11053;BME280;55230;42.602;23.470;2022-10-18T08:41:31;94847.25;;;13.03;57.93
11053;BME280;55230;42.602;23.470;2022-10-18T08:44:05;94838.88;;;13.38;56.05
11053;BME280;55230;42.602;23.470;2022-10-18T08:46:35;94834.78;;;13.59;57.01
11053;BME280;55230;42.602;23.470;2022-10-18T08:49:03;94742.38;;;13.03;55.77
11053;BME280;55230;42.602;23.470;2022-10-18T08:51:39;94830.22;;;13.56;55.09
11053;BME280;55230;42.602;23.470;2022-10-18T08:54:11;94822.28;;;13.74;54.90
11053;BME280;55230;42.602;23.470;2022-10-18T08:56:42;94821.31;;;13.80;53.41
11053;BME280;55230;42.602;23.470;2022-10-18T08:59:11;94821.09;;;14.00;52.11
11053;BME280;55230;42.602;23.470;2022-10-18T09:01:44;94819.31;;;14.19;53.74
11053;BME280;55230;42.602;23.470;2022-10-18T09:04:29;94776.63;;;13.98;51.06
11053;BME280;55230;42.602;23.470;2022-10-18T09:07:17;94633.75;;;13.14;50.84
11053;BME280;55230;42.602;23.470;2022-10-18T09:09:53;94808.94;;;14.85;50.52
11053;BME280;55230;42.602;23.470;2022-10-18T09:12:41;94802.59;;;14.88;49.89
11053;BME280;55230;42.602;23.470;2022-10-18T09:15:19;94807.31;;;14.75;49.54
11053;BME280;55230;42.602;23.470;2022-10-18T09:18:02;94809.25;;;15.09;47.29
11053;BME280;55230;42.602;23.470;2022-10-18T09:20:38;94797.84;;;15.01;47.50
11053;BME280;55230;42.602;23.470;2022-10-18T09:23:17;94797.59;;;15.08;46.71
11053;BME280;55230;42.602;23.470;2022-10-18T09:25:46;94695.38;;;14.28;47.09
11053;BME280;55230;42.602;23.470;2022-10-18T09:28:15;94801.84;;;15.10;46.39
11053;BME280;55230;42.602;23.470;2022-10-18T09:30:51;94799.88;;;15.32;45.96
11053;BME280;55230;42.602;23.470;2022-10-18T09:33:29;94361.44;;;12.44;47.51
11053;BME280;55230;42.602;23.470;2022-10-18T09:36:01;94796.69;;;15.55;46.46
11053;BME280;55230;42.602;23.470;2022-10-18T09:38:31;94787.63;;;15.58;44.69
11053;BME280;55230;42.602;23.470;2022-10-18T09:41:05;94717.09;;;15.24;44.63
11053;BME280;55230;42.602;23.470;2022-10-18T09:43:44;94676.56;;;15.07;44.49
11053;BME280;55230;42.602;23.470;2022-10-18T09:46:14;94585.09;;;14.65;44.17
11053;BME280;55230;42.602;23.470;2022-10-18T09:48:45;94789.84;;;15.90;44.22
11053;BME280;55230;42.602;23.470;2022-10-18T09:51:14;94787.72;;;15.85;43.97
11053;BME280;55230;42.602;23.470;2022-10-18T09:53:56;94655.22;;;15.37;42.72
11053;BME280;55230;42.602;23.470;2022-10-18T09:56:29;94773.31;;;16.33;42.56
11053;BME280;55230;42.602;23.470;2022-10-18T09:58:57;94363.72;;;13.45;42.41
11053;BME280;55230;42.602;23.470;2022-10-18T10:01:25;94768.66;;;16.52;42.76
11053;BME280;55230;42.602;23.470;2022-10-18T10:03:52;94737.63;;;16.67;42.18
11053;BME280;55230;42.602;23.470;2022-10-18T10:06:24;94759.44;;;16.85;41.40
11053;BME280;55230;42.602;23.470;2022-10-18T10:09:00;94698.63;;;16.61;40.67
11053;BME280;55230;42.602;23.470;2022-10-18T10:11:30;94687.88;;;16.58;40.49
11053;BME280;55230;42.602;23.470;2022-10-18T10:13:57;94268.16;;;14.02;40.85
11053;BME280;55230;42.602;23.470;2022-10-18T10:16:32;94709.34;;;16.65;40.89
11053;BME280;55230;42.602;23.470;2022-10-18T10:18:59;94737.00;;;16.99;41.08
11053;BME280;55230;42.602;23.470;2022-10-18T10:21:26;94724.56;;;17.07;39.79
11053;BME280;55230;42.602;23.470;2022-10-18T10:23:54;94722.69;;;17.22;39.64
11053;BME280;55230;42.602;23.470;2022-10-18T10:26:27;94712.06;;;17.33;38.83
11053;BME280;55230;42.602;23.470;2022-10-18T10:28:55;94705.47;;;17.58;36.15
11053;BME280;55230;42.602;23.470;2022-10-18T10:31:26;94325.81;;;15.15;34.67
11053;BME280;55230;42.602;23.470;2022-10-18T10:34:01;94701.19;;;17.66;33.25
11053;BME280;55230;42.602;23.470;2022-10-18T10:36:29;94694.88;;;17.84;33.11
11053;BME280;55230;42.602;23.470;2022-10-18T10:39:04;94683.13;;;18.16;29.71
11053;BME280;55230;42.602;23.470;2022-10-18T10:41:33;94683.31;;;17.89;32.07
11053;BME280;55230;42.602;23.470;2022-10-18T10:44:01;94599.13;;;17.73;31.51
11053;BME280;55230;42.602;23.470;2022-10-18T10:46:33;94669.97;;;18.67;32.46
11053;BME280;55230;42.602;23.470;2022-10-18T10:49:00;94668.66;;;18.92;30.47
11053;BME280;55230;42.602;23.470;2022-10-18T10:51:29;94114.69;;;15.06;31.21
11053;BME280;55230;42.602;23.470;2022-10-18T10:54:00;94658.75;;;18.51;31.25
11053;BME280;55230;42.602;23.470;2022-10-18T10:56:29;94657.59;;;18.57;30.51
11053;BME280;55230;42.602;23.470;2022-10-18T10:59:12;94654.69;;;19.04;27.90
11053;BME280;55230;42.602;23.470;2022-10-18T11:01:39;94645.88;;;19.29;27.62
11053;BME280;55230;42.602;23.470;2022-10-18T11:04:25;94642.06;;;19.36;26.83
11053;BME280;55230;42.602;23.470;2022-10-18T11:07:01;94509.72;;;18.50;25.97
11053;BME280;55230;42.602;23.470;2022-10-18T11:09:36;94634.47;;;19.45;24.33
11053;BME280;55230;42.602;23.470;2022-10-18T11:12:26;94633.25;;;19.46;24.90
11053;BME280;55230;42.602;23.470;2022-10-18T11:15:07;94625.47;;;19.60;25.54
11053;BME280;55230;42.602;23.470;2022-10-18T11:17:42;94573.31;;;19.14;25.75
11053;BME280;55230;42.602;23.470;2022-10-18T11:20:30;94617.03;;;19.28;25.24
11053;BME280;55230;42.602;23.470;2022-10-18T11:23:01;94617.56;;;19.47;25.97
11053;BME280;55230;42.602;23.470;2022-10-18T11:25:47;94610.84;;;19.83;25.76
11053;BME280;55230;42.602;23.470;2022-10-18T11:28:26;94606.59;;;19.82;24.87
11053;BME280;55230;42.602;23.470;2022-10-18T11:31:07;94138.13;;;15.98;25.05
11053;BME280;55230;42.602;23.470;2022-10-18T11:33:47;94594.59;;;19.24;24.97
11053;BME280;55230;42.602;23.470;2022-10-18T11:36:24;94552.75;;;19.18;25.49
11053;BME280;55230;42.602;23.470;2022-10-18T11:38:56;94487.59;;;18.48;25.42
11053;BME280;55230;42.602;23.470;2022-10-18T11:41:30;94585.19;;;19.11;25.71
11053;BME280;55230;42.602;23.470;2022-10-18T11:44:12;94567.63;;;19.17;25.99
11053;BME280;55230;42.602;23.470;2022-10-18T11:46:54;94179.19;;;16.47;22.79
11053;BME280;55230;42.602;23.470;2022-10-18T11:49:34;94512.50;;;18.84;22.80
11053;BME280;55230;42.602;23.470;2022-10-18T11:52:07;94529.56;;;19.14;22.67
11053;BME280;55230;42.602;23.470;2022-10-18T11:55:00;94567.59;;;19.67;21.37
11053;BME280;55230;42.602;23.470;2022-10-18T11:57:45;94555.81;;;19.40;21.45
11053;BME280;55230;42.602;23.470;2022-10-18T12:00:26;94400.09;;;18.27;21.55
11053;BME280;55230;42.602;23.470;2022-10-18T12:03:06;94470.09;;;18.74;23.95
11053;BME280;55230;42.602;23.470;2022-10-18T12:05:38;94541.06;;;19.18;21.45
11053;BME280;55230;42.602;23.470;2022-10-18T12:08:09;94547.56;;;19.20;21.38
11053;BME280;55230;42.602;23.470;2022-10-18T12:10:39;94529.59;;;18.99;22.06
11053;BME280;55230;42.602;23.470;2022-10-18T12:13:12;94527.00;;;19.10;22.14
11053;BME280;55230;42.602;23.470;2022-10-18T12:15:42;94547.97;;;19.13;21.95
11053;BME280;55230;42.602;23.470;2022-10-18T12:18:14;94519.53;;;19.25;22.73
11053;BME280;55230;42.602;23.470;2022-10-18T12:20:45;94480.69;;;19.01;22.14
11053;BME280;55230;42.602;23.470;2022-10-18T12:23:15;94527.25;;;19.27;22.14
11053;BME280;55230;42.602;23.470;2022-10-18T12:25:46;94519.91;;;19.53;23.17
11053;BME280;55230;42.602;23.470;2022-10-18T12:28:22;94511.00;;;19.38;22.46
11053;BME280;55230;42.602;23.470;2022-10-18T12:30:58;94523.88;;;19.52;23.84
11053;BME280;55230;42.602;23.470;2022-10-18T12:33:36;94530.38;;;19.54;23.71
11053;BME280;55230;42.602;23.470;2022-10-18T12:36:10;94496.16;;;19.65;22.71
11053;BME280;55230;42.602;23.470;2022-10-18T12:38:41;94496.03;;;19.53;22.72
11053;BME280;55230;42.602;23.470;2022-10-18T12:41:16;94499.78;;;19.56;22.67
11053;BME280;55230;42.602;23.470;2022-10-18T12:43:51;94491.22;;;19.28;22.76
11053;BME280;55230;42.602;23.470;2022-10-18T12:46:18;94381.56;;;18.66;23.25
11053;BME280;55230;42.602;23.470;2022-10-18T12:48:49;94500.56;;;19.57;22.52
11053;BME280;55230;42.602;23.470;2022-10-18T12:51:25;94411.31;;;18.79;22.35
11053;BME280;55230;42.602;23.470;2022-10-18T12:54:08;94485.50;;;19.46;22.38
11053;BME280;55230;42.602;23.470;2022-10-18T12:56:38;94484.78;;;19.72;21.77
11053;BME280;55230;42.602;23.470;2022-10-18T13:02:29;94416.53;;;19.22;21.09
11053;BME280;55230;42.602;23.470;2022-10-18T13:04:58;94475.25;;;19.87;20.95
11053;BME280;55230;42.602;23.470;2022-10-18T13:07:35;94472.88;;;19.75;20.73
11053;BME280;55230;42.602;23.470;2022-10-18T13:10:38;94476.75;;;19.88;21.86
11053;BME280;55230;42.602;23.470;2022-10-18T13:13:32;94408.56;;;19.39;20.97
11053;BME280;55230;42.602;23.470;2022-10-18T13:16:08;94471.53;;;19.90;21.46
11053;BME280;55230;42.602;23.470;2022-10-18T13:18:46;94420.72;;;19.18;20.42